createdAt,value
2022-07-31T00:00:28.224Z,100.00
2022-07-31T00:02:56.113Z,100.00
2022-07-31T00:05:25.600Z,100.00
2022-07-31T00:07:54.170Z,100.00
2022-07-31T00:10:21.666Z,100.00
2022-07-31T00:12:49.366Z,100.00
2022-07-31T00:15:17.641Z,100.00
2022-07-31T00:17:46.031Z,100.00
2022-07-31T00:20:15.269Z,100.00
2022-07-31T00:22:44.499Z,100.00
2022-07-31T00:25:13.518Z,100.00
2022-07-31T00:27:42.214Z,100.00
2022-07-31T00:30:13.132Z,100.00
2022-07-31T00:32:42.116Z,100.00
2022-07-31T00:35:14.310Z,100.00
2022-07-31T00:37:43.384Z,100.00
2022-07-31T00:40:13.359Z,100.00
2022-07-31T00:42:41.510Z,100.00
2022-07-31T00:45:10.395Z,100.00
2022-07-31T00:47:42.259Z,100.00
2022-07-31T00:50:11.633Z,100.00
2022-07-31T00:52:40.777Z,100.00
2022-07-31T00:55:08.780Z,100.00
2022-07-31T00:57:36.623Z,100.00
2022-07-31T01:00:05.616Z,100.00
2022-07-31T01:02:33.306Z,100.00
2022-07-31T01:05:00.827Z,100.00
2022-07-31T01:07:28.337Z,100.00
2022-07-31T01:09:56.990Z,100.00
2022-07-31T01:12:33.962Z,100.00
2022-07-31T01:15:06.040Z,100.00
2022-07-31T01:17:36.320Z,100.00
2022-07-31T01:20:04.669Z,100.00
2022-07-31T01:23:19.638Z,100.00
2022-07-31T01:26:31.751Z,100.00
2022-07-31T01:29:10.206Z,100.00
2022-07-31T01:31:48.211Z,100.00
2022-07-31T01:34:24.606Z,100.00
2022-07-31T01:37:13.119Z,100.00
2022-07-31T01:39:46.981Z,100.00
2022-07-31T01:42:18.624Z,100.00
2022-07-31T01:44:51.431Z,100.00
2022-07-31T01:47:21.708Z,100.00
2022-07-31T01:49:53.626Z,100.00
2022-07-31T01:52:26.260Z,100.00
2022-07-31T01:54:56.011Z,100.00
2022-07-31T01:57:26.047Z,100.00
2022-07-31T01:59:58.779Z,100.00
2022-07-31T02:02:45.100Z,100.00
2022-07-31T02:05:13.491Z,100.00
2022-07-31T02:07:43.220Z,100.00
2022-07-31T02:10:13.863Z,100.00
2022-07-31T02:12:44.182Z,100.00
2022-07-31T02:15:14.441Z,100.00
2022-07-31T02:17:46.787Z,100.00
2022-07-31T02:20:41.601Z,100.00
2022-07-31T02:23:12.102Z,100.00
2022-07-31T02:25:40.458Z,100.00
2022-07-31T02:28:10.709Z,100.00
2022-07-31T02:30:41.625Z,100.00
2022-07-31T02:33:19.139Z,100.00
2022-07-31T02:35:53.936Z,100.00
2022-07-31T02:38:24.270Z,100.00
2022-07-31T02:40:58.879Z,100.00
2022-07-31T02:43:28.771Z,100.00
2022-07-31T02:45:58.645Z,100.00
2022-07-31T02:48:27.188Z,100.00
2022-07-31T02:50:57.776Z,100.00
2022-07-31T02:53:27.233Z,100.00
2022-07-31T02:56:01.439Z,100.00
2022-07-31T02:58:32.646Z,100.00
2022-07-31T03:01:06.111Z,100.00
2022-07-31T03:03:35.461Z,100.00
2022-07-31T03:06:03.289Z,100.00
2022-07-31T03:08:34.210Z,100.00
2022-07-31T03:11:05.962Z,100.00
2022-07-31T03:13:35.440Z,100.00
2022-07-31T03:16:07.309Z,100.00
2022-07-31T03:18:36.740Z,100.00
2022-07-31T03:21:05.001Z,100.00
2022-07-31T03:23:36.614Z,100.00
2022-07-31T03:26:16.418Z,100.00
2022-07-31T03:28:44.066Z,100.00
2022-07-31T03:31:11.555Z,100.00
2022-07-31T03:33:39.177Z,100.00
2022-07-31T03:36:09.662Z,100.00
2022-07-31T03:38:42.226Z,100.00
2022-07-31T03:41:34.181Z,100.00
2022-07-31T03:44:02.779Z,100.00
2022-07-31T03:46:31.196Z,100.00
2022-07-31T03:48:59.197Z,100.00
2022-07-31T03:51:28.153Z,100.00
2022-07-31T03:53:56.462Z,100.00
2022-07-31T03:56:50.109Z,100.00
2022-07-31T03:59:20.298Z,100.00
2022-07-31T04:01:57.219Z,100.00
2022-07-31T04:04:43.500Z,100.00
2022-07-31T04:07:11.152Z,100.00
2022-07-31T04:09:38.828Z,100.00
2022-07-31T04:12:07.805Z,100.00
2022-07-31T04:14:35.700Z,100.00
2022-07-31T04:17:03.543Z,100.00
2022-07-31T04:19:31.682Z,100.00
2022-07-31T04:22:00.761Z,100.00
2022-07-31T04:24:28.612Z,100.00
2022-07-31T04:27:02.240Z,100.00
2022-07-31T04:29:37.590Z,100.00
2022-07-31T04:32:06.030Z,100.00
2022-07-31T04:34:43.841Z,98.57
2022-07-31T04:37:11.516Z,96.89
2022-07-31T04:39:39.050Z,93.39
2022-07-31T04:42:11.269Z,88.93
2022-07-31T04:44:39.282Z,88.52
2022-07-31T04:47:08.264Z,85.84
2022-07-31T04:49:41.980Z,81.76
2022-07-31T04:52:11.898Z,81.59
2022-07-31T04:54:41.181Z,80.14
2022-07-31T04:57:11.185Z,74.85
2022-07-31T04:59:57.877Z,70.23
2022-07-31T05:02:26.527Z,68.86
2022-07-31T05:04:57.232Z,67.13
2022-07-31T05:07:30.879Z,64.96
2022-07-31T05:10:00.921Z,65.73
2022-07-31T05:12:28.640Z,65.52
2022-07-31T05:14:56.359Z,65.25
2022-07-31T05:17:23.992Z,63.78
2022-07-31T05:20:00.997Z,63.31
2022-07-31T05:22:51.570Z,62.74
2022-07-31T05:25:41.707Z,62.37
2022-07-31T05:28:09.812Z,59.86
2022-07-31T05:30:38.280Z,58.96
2022-07-31T05:33:07.032Z,58.55
2022-07-31T05:35:35.931Z,57.85
2022-07-31T05:38:03.510Z,59.57
2022-07-31T05:40:57.441Z,57.73
2022-07-31T05:43:54.420Z,59.30
2022-07-31T05:46:25.799Z,62.09
2022-07-31T05:48:53.718Z,59.75
2022-07-31T05:51:21.298Z,57.52
2022-07-31T05:53:50.090Z,56.42
2022-07-31T05:56:36.050Z,57.22
2022-07-31T05:59:04.105Z,57.36
2022-07-31T06:01:32.012Z,56.88
2022-07-31T06:03:59.959Z,58.60
2022-07-31T06:06:32.878Z,57.67
2022-07-31T06:09:04.560Z,56.87
2022-07-31T06:11:36.561Z,56.76
2022-07-31T06:14:04.160Z,55.35
2022-07-31T06:16:50.347Z,55.77
2022-07-31T06:19:19.847Z,53.25
2022-07-31T06:21:54.027Z,53.34
2022-07-31T06:24:22.865Z,52.12
2022-07-31T06:26:50.490Z,51.75
2022-07-31T06:29:18.176Z,50.62
2022-07-31T06:31:45.970Z,49.36
2022-07-31T06:34:18.276Z,50.31
2022-07-31T06:36:49.148Z,50.50
2022-07-31T06:39:19.638Z,49.75
2022-07-31T06:42:10.378Z,49.11
2022-07-31T06:44:45.788Z,50.00
2022-07-31T06:47:32.331Z,49.50
2022-07-31T06:50:17.567Z,49.11
2022-07-31T06:52:55.297Z,47.86
2022-07-31T06:55:24.628Z,47.84
2022-07-31T06:57:52.129Z,47.38
2022-07-31T07:00:21.047Z,47.15
2022-07-31T07:02:51.597Z,47.87
2022-07-31T07:05:19.319Z,47.06
2022-07-31T07:07:51.229Z,47.06
2022-07-31T07:10:18.859Z,47.17
2022-07-31T07:13:01.431Z,46.59
2022-07-31T07:15:33.460Z,46.00
2022-07-31T07:18:01.068Z,46.02
2022-07-31T07:20:39.460Z,48.06
2022-07-31T07:23:07.092Z,48.52
2022-07-31T07:25:38.885Z,49.51
2022-07-31T07:28:14.843Z,47.50
2022-07-31T07:30:43.529Z,47.74
2022-07-31T07:33:11.995Z,46.89
2022-07-31T07:35:39.859Z,46.91
2022-07-31T07:38:13.699Z,46.05
2022-07-31T07:40:44.351Z,45.60
2022-07-31T07:43:12.135Z,44.86
2022-07-31T07:45:40.175Z,44.15
2022-07-31T07:48:08.130Z,44.85
2022-07-31T07:50:58.598Z,44.94
2022-07-31T07:53:31.850Z,45.10
2022-07-31T07:56:18.128Z,44.66
2022-07-31T07:59:04.329Z,45.48
2022-07-31T08:01:50.405Z,45.57
2022-07-31T08:04:23.719Z,45.98
2022-07-31T08:06:51.319Z,46.17
2022-07-31T08:09:21.289Z,45.53
2022-07-31T08:12:08.778Z,45.37
2022-07-31T08:14:56.505Z,44.40
2022-07-31T08:17:47.269Z,42.99
2022-07-31T08:20:15.421Z,43.61
2022-07-31T08:22:43.684Z,43.73
2022-07-31T08:25:15.114Z,44.56
2022-07-31T08:27:43.548Z,44.82
2022-07-31T08:30:15.977Z,43.42
2022-07-31T08:32:43.648Z,43.71
2022-07-31T08:35:20.978Z,42.20
2022-07-31T08:37:52.151Z,42.92
2022-07-31T08:40:32.678Z,44.46
2022-07-31T08:43:14.626Z,44.60
2022-07-31T08:45:53.008Z,46.65
2022-07-31T08:48:32.869Z,45.82
2022-07-31T08:51:03.839Z,44.71
2022-07-31T08:54:11.348Z,43.37
2022-07-31T08:56:39.457Z,43.54
2022-07-31T08:59:09.227Z,42.81
2022-07-31T09:01:39.108Z,41.47
2022-07-31T09:04:06.998Z,41.80
2022-07-31T09:06:34.547Z,41.01
2022-07-31T09:09:02.458Z,42.84
2022-07-31T09:11:30.828Z,44.29
2022-07-31T09:14:30.188Z,43.85
2022-07-31T09:16:58.127Z,46.03
2022-07-31T09:19:54.302Z,44.60
2022-07-31T09:22:28.327Z,42.74
2022-07-31T09:25:16.428Z,43.02
2022-07-31T09:27:45.379Z,44.40
2022-07-31T09:30:13.228Z,43.59
2022-07-31T09:33:19.098Z,45.27
2022-07-31T09:36:01.857Z,45.58
2022-07-31T09:38:39.456Z,44.00
2022-07-31T09:42:00.232Z,40.94
2022-07-31T09:44:25.292Z,42.43
2022-07-31T09:46:54.507Z,44.31
2022-07-31T09:49:31.962Z,42.66
2022-07-31T09:52:00.857Z,42.52
2022-07-31T09:54:31.646Z,43.60
2022-07-31T09:56:59.393Z,46.29
2022-07-31T09:59:32.727Z,47.04
2022-07-31T10:02:01.427Z,47.74
2022-07-31T10:04:29.334Z,47.80
2022-07-31T10:06:57.485Z,46.88
2022-07-31T10:09:25.569Z,46.86
2022-07-31T10:12:18.355Z,44.43
2022-07-31T10:14:48.945Z,44.91
2022-07-31T10:17:26.279Z,44.26
2022-07-31T10:20:06.578Z,42.90
2022-07-31T10:22:49.589Z,42.45
2022-07-31T10:25:29.929Z,42.57
2022-07-31T10:27:58.883Z,43.24
2022-07-31T10:30:28.878Z,43.92
2022-07-31T10:33:00.350Z,43.91
2022-07-31T10:35:28.342Z,45.77
2022-07-31T10:38:41.893Z,46.54
2022-07-31T10:41:54.645Z,43.44
2022-07-31T10:44:52.782Z,43.32
2022-07-31T10:47:27.363Z,43.40
2022-07-31T10:50:22.560Z,44.51
2022-07-31T10:53:16.730Z,45.94
2022-07-31T10:56:19.754Z,45.76
2022-07-31T10:59:11.078Z,44.70
2022-07-31T11:01:55.287Z,44.90
2022-07-31T11:04:38.743Z,43.41
2022-07-31T11:07:38.492Z,42.79
2022-07-31T11:10:12.318Z,44.15
2022-07-31T11:13:11.134Z,44.42
2022-07-31T11:16:06.643Z,46.53
2022-07-31T11:19:13.933Z,45.97
2022-07-31T11:21:42.438Z,43.82
2022-07-31T11:24:17.369Z,44.25
2022-07-31T11:26:52.092Z,43.24
2022-07-31T11:30:00.679Z,42.57
2022-07-31T11:32:25.751Z,44.76
2022-07-31T11:34:56.962Z,46.03
2022-07-31T11:37:56.875Z,46.93
2022-07-31T11:40:22.503Z,47.19
2022-07-31T11:45:49.919Z,50.28
2022-07-31T11:48:19.704Z,51.17
2022-07-31T11:50:48.918Z,52.34
2022-07-31T11:53:17.952Z,55.66
2022-07-31T11:55:56.140Z,56.24
2022-07-31T11:58:25.377Z,55.06
2022-07-31T12:00:59.981Z,55.54
2022-07-31T12:03:35.462Z,57.18
2022-07-31T12:06:04.534Z,56.38
2022-07-31T12:08:33.032Z,54.40
2022-07-31T12:11:02.222Z,52.76
2022-07-31T12:13:30.650Z,52.03
2022-07-31T12:16:05.145Z,51.78
2022-07-31T12:18:56.610Z,52.18
2022-07-31T12:21:35.939Z,50.35
2022-07-31T12:24:11.471Z,47.69
2022-07-31T12:26:39.171Z,46.88
2022-07-31T12:29:08.663Z,46.40
2022-07-31T12:31:46.622Z,45.08
2022-07-31T12:34:35.818Z,44.83
2022-07-31T12:37:07.040Z,44.86
2022-07-31T12:39:53.885Z,43.79
2022-07-31T12:42:30.224Z,42.92
2022-07-31T12:45:18.333Z,43.52
2022-07-31T12:47:51.946Z,43.90
2022-07-31T12:50:24.894Z,42.28
2022-07-31T12:52:52.963Z,40.68
2022-07-31T12:55:21.031Z,41.28
2022-07-31T12:57:51.703Z,42.33
2022-07-31T13:00:23.286Z,43.07
2022-07-31T13:02:52.706Z,42.16
2022-07-31T13:05:21.191Z,42.81
2022-07-31T13:07:49.662Z,43.13
2022-07-31T13:10:21.314Z,43.00
2022-07-31T13:12:52.969Z,42.87
2022-07-31T13:15:30.053Z,42.52
2022-07-31T13:18:02.115Z,42.45
2022-07-31T13:20:31.277Z,42.83
2022-07-31T13:23:03.181Z,41.66
2022-07-31T13:25:30.947Z,41.31
2022-07-31T13:27:59.192Z,40.61
2022-07-31T13:30:28.490Z,40.41
2022-07-31T13:32:55.940Z,39.25
2022-07-31T13:35:28.632Z,38.31
2022-07-31T13:37:57.033Z,37.31
2022-07-31T13:40:44.530Z,36.99
2022-07-31T13:43:13.200Z,36.35
2022-07-31T13:45:40.712Z,36.99
2022-07-31T13:48:10.243Z,36.87
2022-07-31T13:50:40.072Z,36.50
2022-07-31T13:53:08.926Z,38.01
2022-07-31T13:55:36.847Z,37.77
2022-07-31T13:58:04.695Z,38.64
2022-07-31T14:00:32.538Z,40.28
2022-07-31T14:03:00.230Z,40.79
2022-07-31T14:05:28.308Z,41.11
2022-07-31T14:08:29.646Z,42.20
2022-07-31T14:10:48.449Z,42.69
2022-07-31T14:13:19.617Z,42.30
2022-07-31T14:15:48.064Z,42.00
2022-07-31T14:18:15.875Z,41.07
2022-07-31T14:20:43.382Z,40.73
2022-07-31T14:23:11.431Z,39.45
2022-07-31T14:25:39.797Z,39.36
2022-07-31T14:28:08.722Z,39.13
2022-07-31T14:30:37.483Z,39.58
2022-07-31T14:33:05.286Z,39.86
2022-07-31T14:35:33.791Z,39.37
2022-07-31T14:38:04.220Z,39.54
2022-07-31T14:40:32.340Z,39.56
2022-07-31T14:43:00.182Z,39.39
2022-07-31T14:45:28.077Z,39.55
2022-07-31T14:47:57.340Z,38.80
2022-07-31T14:50:25.147Z,39.07
2022-07-31T14:52:52.861Z,39.71
2022-07-31T14:55:21.119Z,38.72
2022-07-31T14:57:48.649Z,38.52
2022-07-31T15:00:16.882Z,39.39
2022-07-31T15:02:45.058Z,38.47
2022-07-31T15:06:42.350Z,38.87
2022-07-31T15:08:02.530Z,39.73
2022-07-31T15:10:31.547Z,39.29
2022-07-31T15:12:59.129Z,39.02
2022-07-31T15:15:28.587Z,39.18
2022-07-31T15:17:56.862Z,38.44
2022-07-31T15:20:32.900Z,38.28
2022-07-31T15:23:02.033Z,38.12
2022-07-31T15:25:30.477Z,38.05
2022-07-31T15:27:58.401Z,38.00
2022-07-31T15:30:26.039Z,38.06
2022-07-31T15:32:53.722Z,37.82
2022-07-31T15:35:21.295Z,38.08
2022-07-31T15:37:49.782Z,38.28
2022-07-31T15:40:17.942Z,37.83
2022-07-31T15:42:46.846Z,37.82
2022-07-31T15:45:16.823Z,38.36
2022-07-31T15:47:45.663Z,38.71
2022-07-31T15:50:15.663Z,39.10
2022-07-31T15:52:43.507Z,39.10
2022-07-31T15:55:11.777Z,39.10
2022-07-31T15:57:39.707Z,39.04
2022-07-31T16:00:11.163Z,39.17
2022-07-31T16:02:39.661Z,39.90
2022-07-31T16:05:11.274Z,40.06
2022-07-31T16:08:30.275Z,40.72
2022-07-31T16:10:28.360Z,40.80
2022-07-31T16:12:55.979Z,41.01
2022-07-31T16:15:24.142Z,40.97
2022-07-31T16:17:54.262Z,40.79
2022-07-31T16:20:27.104Z,41.03
2022-07-31T16:22:58.501Z,40.86
2022-07-31T16:25:27.341Z,41.26
2022-07-31T16:27:55.497Z,41.53
2022-07-31T16:30:23.622Z,41.41
2022-07-31T16:32:51.620Z,41.42
2022-07-31T16:35:19.523Z,42.03
2022-07-31T16:37:52.059Z,41.87
2022-07-31T16:40:26.876Z,41.72
2022-07-31T16:43:01.598Z,41.46
2022-07-31T16:45:30.179Z,41.70
2022-07-31T16:47:58.022Z,41.75
2022-07-31T16:50:26.002Z,41.85
2022-07-31T16:52:55.083Z,42.14
2022-07-31T16:55:51.551Z,42.26
2022-07-31T16:58:12.701Z,42.50
2022-07-31T17:00:40.561Z,42.30
2022-07-31T17:03:59.503Z,42.55
2022-07-31T17:05:56.393Z,42.69
2022-07-31T17:08:24.239Z,43.05
2022-07-31T17:10:54.622Z,43.19
2022-07-31T17:13:23.346Z,43.63
2022-07-31T17:15:51.020Z,44.03
2022-07-31T17:18:19.021Z,44.57
2022-07-31T17:20:47.298Z,44.86
2022-07-31T17:23:15.689Z,44.90
2022-07-31T17:25:43.999Z,45.41
2022-07-31T17:28:15.393Z,45.56
2022-07-31T17:30:45.154Z,45.61
2022-07-31T17:33:13.198Z,45.90
2022-07-31T17:35:41.118Z,46.35
2022-07-31T17:38:08.821Z,47.12
2022-07-31T17:40:44.400Z,46.98
2022-07-31T17:43:14.260Z,46.86
2022-07-31T17:45:59.367Z,47.14
2022-07-31T17:48:32.077Z,47.10
2022-07-31T17:50:59.719Z,47.68
2022-07-31T17:53:31.102Z,47.91
2022-07-31T17:56:16.676Z,48.25
2022-07-31T17:58:44.360Z,48.42
2022-07-31T18:01:12.100Z,48.71
2022-07-31T18:03:39.801Z,48.64
2022-07-31T18:06:07.522Z,48.83
2022-07-31T18:08:35.237Z,49.22
2022-07-31T18:11:03.040Z,49.38
2022-07-31T18:13:30.736Z,49.27
2022-07-31T18:16:08.276Z,49.69
2022-07-31T18:18:35.962Z,49.79
2022-07-31T18:21:03.920Z,49.93
2022-07-31T18:23:32.619Z,50.16
2022-07-31T18:26:01.001Z,50.39
2022-07-31T18:28:31.840Z,50.53
2022-07-31T18:31:03.699Z,50.73
2022-07-31T18:33:31.456Z,50.81
2022-07-31T18:35:59.096Z,51.09
2022-07-31T18:38:26.840Z,51.31
2022-07-31T18:40:56.102Z,51.34
2022-07-31T18:43:23.724Z,51.54
2022-07-31T18:45:51.541Z,51.93
2022-07-31T18:48:20.463Z,52.33
2022-07-31T18:50:59.640Z,52.50
2022-07-31T18:53:32.258Z,53.04
2022-07-31T18:56:00.220Z,53.28
2022-07-31T18:58:27.919Z,53.39
2022-07-31T19:00:55.937Z,53.64
2022-07-31T19:03:26.470Z,53.87
2022-07-31T19:05:54.648Z,53.93
2022-07-31T19:08:22.500Z,54.32
2022-07-31T19:10:53.566Z,54.41
2022-07-31T19:13:22.559Z,54.75
2022-07-31T19:15:53.172Z,54.88
2022-07-31T19:18:26.357Z,55.09
2022-07-31T19:21:22.995Z,55.36
2022-07-31T19:23:48.299Z,55.76
2022-07-31T19:26:16.920Z,56.00
2022-07-31T19:28:44.662Z,56.08
2022-07-31T19:31:13.527Z,56.43
2022-07-31T19:33:41.599Z,56.79
2022-07-31T19:36:10.865Z,57.03
2022-07-31T19:38:41.055Z,57.19
2022-07-31T19:41:08.679Z,57.62
2022-07-31T19:43:36.439Z,57.65
2022-07-31T19:46:12.338Z,58.38
2022-07-31T19:48:45.963Z,58.68
2022-07-31T19:51:15.963Z,58.79
2022-07-31T19:53:44.738Z,59.24
2022-07-31T19:56:18.338Z,59.76
2022-07-31T19:58:49.521Z,60.67
2022-07-31T20:01:20.272Z,61.40
2022-07-31T20:03:49.782Z,62.59
2022-07-31T20:06:17.645Z,66.45
2022-07-31T20:08:45.265Z,75.40
2022-07-31T20:11:13.637Z,84.52
2022-07-31T20:13:41.476Z,87.25
2022-07-31T20:16:09.519Z,93.06
2022-07-31T20:18:37.359Z,94.92
2022-07-31T20:21:07.957Z,94.95
2022-07-31T20:23:41.809Z,92.07
2022-07-31T20:26:11.162Z,94.02
2022-07-31T20:28:42.760Z,100.00
2022-07-31T20:31:15.941Z,100.00
2022-07-31T20:33:57.080Z,100.00
2022-07-31T20:36:27.033Z,100.00
2022-07-31T20:38:55.400Z,100.00
2022-07-31T20:41:22.999Z,100.00
2022-07-31T20:43:50.621Z,100.00
2022-07-31T20:46:18.665Z,100.00
2022-07-31T20:48:46.238Z,100.00
2022-07-31T20:51:20.553Z,100.00
2022-07-31T20:53:52.281Z,100.00
2022-07-31T20:56:20.224Z,100.00
2022-07-31T20:58:51.698Z,100.00
2022-07-31T21:01:21.585Z,100.00
2022-07-31T21:03:49.396Z,100.00
2022-07-31T21:06:17.038Z,100.00
2022-07-31T21:08:44.656Z,100.00
2022-07-31T21:11:12.398Z,100.00
2022-07-31T21:13:40.146Z,100.00
2022-07-31T21:16:08.199Z,100.00
2022-07-31T21:18:38.867Z,100.00
2022-07-31T21:21:08.996Z,100.00
2022-07-31T21:23:36.518Z,100.00
2022-07-31T21:26:04.387Z,100.00
2022-07-31T21:28:32.418Z,100.00
2022-07-31T21:31:00.560Z,100.00
2022-07-31T21:33:28.521Z,100.00
2022-07-31T21:35:56.274Z,100.00
2022-07-31T21:38:24.161Z,100.00
2022-07-31T21:40:53.694Z,100.00
2022-07-31T21:43:22.960Z,100.00
2022-07-31T21:45:57.491Z,100.00
2022-07-31T21:48:31.561Z,100.00
2022-07-31T21:51:00.915Z,100.00
2022-07-31T21:53:28.618Z,100.00
2022-07-31T21:56:00.957Z,100.00
2022-07-31T21:58:28.499Z,99.38
2022-07-31T22:00:56.057Z,100.00
2022-07-31T22:03:25.602Z,100.00
2022-07-31T22:06:11.739Z,100.00
2022-07-31T22:08:39.794Z,100.00
2022-07-31T22:11:07.500Z,100.00
2022-07-31T22:13:35.557Z,100.00
2022-07-31T22:16:03.284Z,100.00
2022-07-31T22:18:33.584Z,100.00
2022-07-31T22:21:04.998Z,99.49
2022-07-31T22:23:32.799Z,100.00
2022-07-31T22:26:00.874Z,100.00
2022-07-31T22:28:28.635Z,100.00
2022-07-31T22:30:57.301Z,100.00
2022-07-31T22:33:25.327Z,100.00
2022-07-31T22:35:59.032Z,100.00
2022-07-31T22:38:29.776Z,100.00
2022-07-31T22:40:58.962Z,100.00
2022-07-31T22:44:12.383Z,100.00
2022-07-31T22:46:15.893Z,100.00
2022-07-31T22:48:45.585Z,100.00
2022-07-31T22:51:15.041Z,100.00
2022-07-31T22:53:49.163Z,100.00
2022-07-31T22:56:17.954Z,99.94
2022-07-31T22:58:45.768Z,98.65
2022-07-31T23:01:13.557Z,98.75
2022-07-31T23:03:41.040Z,99.62
2022-07-31T23:06:30.571Z,100.00
2022-07-31T23:08:56.380Z,100.00
2022-07-31T23:11:24.831Z,100.00
2022-07-31T23:13:52.965Z,100.00
2022-07-31T23:16:21.535Z,100.00
2022-07-31T23:18:50.061Z,100.00
2022-07-31T23:21:18.908Z,100.00
2022-07-31T23:23:48.546Z,100.00
2022-07-31T23:26:21.620Z,100.00
2022-07-31T23:28:49.737Z,100.00
2022-07-31T23:31:18.153Z,100.00
2022-07-31T23:33:47.537Z,100.00
2022-07-31T23:36:16.275Z,100.00
2022-07-31T23:38:44.581Z,100.00
2022-07-31T23:41:12.898Z,100.00
2022-07-31T23:43:40.860Z,100.00
2022-07-31T23:46:26.502Z,100.00
2022-07-31T23:48:54.781Z,100.00
2022-07-31T23:51:23.777Z,100.00
2022-07-31T23:53:51.657Z,100.00
2022-07-31T23:56:19.947Z,100.00
2022-07-31T23:58:47.592Z,100.00
